sensor_id;sensor_type;location;lat;lon;timestamp;P1;durP1;ratioP1;P2;durP2;ratioP2
55342;SDS011;41215;45.076;20.956;2022-07-29T05:09:30;4.55;;;4.15;;
55342;SDS011;41215;45.076;20.956;2022-07-29T05:11:57;5.80;;;4.05;;
55342;SDS011;41215;45.076;20.956;2022-07-29T05:14:23;4.57;;;4.10;;
55342;SDS011;41215;45.076;20.956;2022-07-29T05:16:54;5.07;;;4.55;;
55342;SDS011;41215;45.076;20.956;2022-07-29T05:19:22;5.60;;;4.45;;
55342;SDS011;41215;45.076;20.956;2022-07-29T05:21:49;6.30;;;4.10;;
55342;SDS011;41215;45.076;20.956;2022-07-29T05:24:17;4.00;;;3.60;;
55342;SDS011;41215;45.076;20.956;2022-07-29T05:26:50;5.93;;;3.80;;
55342;SDS011;41215;45.076;20.956;2022-07-29T05:29:19;9.82;;;3.67;;
55342;SDS011;41215;45.076;20.956;2022-07-29T05:34:17;7.03;;;3.72;;
55342;SDS011;41215;45.076;20.956;2022-07-29T05:36:44;5.88;;;3.65;;
55342;SDS011;41215;45.076;20.956;2022-07-29T05:41:44;3.88;;;3.38;;
55342;SDS011;41215;45.076;20.956;2022-07-29T05:44:10;4.95;;;4.03;;
55342;SDS011;41215;45.076;20.956;2022-07-29T05:46:38;7.20;;;4.35;;
55342;SDS011;41215;45.076;20.956;2022-07-29T05:49:04;7.28;;;4.28;;
55342;SDS011;41215;45.076;20.956;2022-07-29T05:51:32;5.65;;;4.07;;
55342;SDS011;41215;45.076;20.956;2022-07-29T05:53:58;8.43;;;4.22;;
55342;SDS011;41215;45.076;20.956;2022-07-29T05:56:26;14.50;;;5.55;;
55342;SDS011;41215;45.076;20.956;2022-07-29T05:58:52;13.52;;;5.20;;
55342;SDS011;41215;45.076;20.956;2022-07-29T06:01:21;6.90;;;5.07;;
55342;SDS011;41215;45.076;20.956;2022-07-29T06:03:47;10.38;;;5.35;;
55342;SDS011;41215;45.076;20.956;2022-07-29T06:06:13;6.10;;;5.18;;
55342;SDS011;41215;45.076;20.956;2022-07-29T06:08:39;6.43;;;5.80;;
55342;SDS011;41215;45.076;20.956;2022-07-29T06:11:06;6.30;;;5.20;;
55342;SDS011;41215;45.076;20.956;2022-07-29T06:13:33;10.40;;;5.85;;
55342;SDS011;41215;45.076;20.956;2022-07-29T06:15:59;9.43;;;4.93;;
55342;SDS011;41215;45.076;20.956;2022-07-29T06:18:25;6.07;;;4.85;;
55342;SDS011;41215;45.076;20.956;2022-07-29T06:20:52;8.25;;;5.65;;
55342;SDS011;41215;45.076;20.956;2022-07-29T06:23:23;9.30;;;6.03;;
55342;SDS011;41215;45.076;20.956;2022-07-29T06:25:49;5.97;;;5.35;;
55342;SDS011;41215;45.076;20.956;2022-07-29T06:28:15;6.93;;;4.95;;
55342;SDS011;41215;45.076;20.956;2022-07-29T06:30:41;13.73;;;6.43;;
55342;SDS011;41215;45.076;20.956;2022-07-29T06:33:07;9.55;;;5.20;;
55342;SDS011;41215;45.076;20.956;2022-07-29T06:35:36;7.80;;;5.15;;
55342;SDS011;41215;45.076;20.956;2022-07-29T06:38:04;6.53;;;5.38;;
55342;SDS011;41215;45.076;20.956;2022-07-29T06:40:32;10.50;;;6.05;;
55342;SDS011;41215;45.076;20.956;2022-07-29T06:43:22;6.78;;;6.00;;
55342;SDS011;41215;45.076;20.956;2022-07-29T06:45:48;9.98;;;6.28;;
55342;SDS011;41215;45.076;20.956;2022-07-29T06:48:14;7.63;;;5.65;;
55342;SDS011;41215;45.076;20.956;2022-07-29T06:50:40;8.73;;;6.20;;
55342;SDS011;41215;45.076;20.956;2022-07-29T06:53:06;6.40;;;5.65;;
55342;SDS011;41215;45.076;20.956;2022-07-29T06:55:35;16.60;;;5.88;;
55342;SDS011;41215;45.076;20.956;2022-07-29T06:58:03;6.72;;;5.43;;
55342;SDS011;41215;45.076;20.956;2022-07-29T07:00:29;8.75;;;5.78;;
55342;SDS011;41215;45.076;20.956;2022-07-29T07:02:58;9.00;;;6.03;;
55342;SDS011;41215;45.076;20.956;2022-07-29T07:05:24;12.50;;;5.22;;
55342;SDS011;41215;45.076;20.956;2022-07-29T07:07:50;7.38;;;5.95;;
55342;SDS011;41215;45.076;20.956;2022-07-29T07:10:19;7.82;;;5.40;;
55342;SDS011;41215;45.076;20.956;2022-07-29T07:12:46;14.55;;;6.32;;
55342;SDS011;41215;45.076;20.956;2022-07-29T07:15:12;11.55;;;5.80;;
55342;SDS011;41215;45.076;20.956;2022-07-29T07:17:38;8.55;;;5.30;;
55342;SDS011;41215;45.076;20.956;2022-07-29T07:20:05;6.43;;;5.70;;
55342;SDS011;41215;45.076;20.956;2022-07-29T07:22:31;11.05;;;5.25;;
55342;SDS011;41215;45.076;20.956;2022-07-29T07:24:58;8.52;;;5.90;;
55342;SDS011;41215;45.076;20.956;2022-07-29T07:27:27;7.80;;;6.30;;
55342;SDS011;41215;45.076;20.956;2022-07-29T07:29:53;8.93;;;5.72;;
55342;SDS011;41215;45.076;20.956;2022-07-29T07:32:19;9.75;;;6.22;;
55342;SDS011;41215;45.076;20.956;2022-07-29T07:34:45;8.45;;;6.10;;
55342;SDS011;41215;45.076;20.956;2022-07-29T07:37:11;9.52;;;5.90;;
55342;SDS011;41215;45.076;20.956;2022-07-29T07:39:37;6.68;;;6.18;;
55342;SDS011;41215;45.076;20.956;2022-07-29T07:42:03;8.93;;;6.07;;
55342;SDS011;41215;45.076;20.956;2022-07-29T07:44:29;10.85;;;6.15;;
55342;SDS011;41215;45.076;20.956;2022-07-29T07:49:29;7.90;;;6.55;;
55342;SDS011;41215;45.076;20.956;2022-07-29T07:51:55;6.63;;;6.07;;
55342;SDS011;41215;45.076;20.956;2022-07-29T07:54:21;11.43;;;6.88;;
55342;SDS011;41215;45.076;20.956;2022-07-29T07:56:47;8.88;;;6.07;;
55342;SDS011;41215;45.076;20.956;2022-07-29T07:59:14;8.13;;;6.25;;
55342;SDS011;41215;45.076;20.956;2022-07-29T08:01:45;9.75;;;6.60;;
55342;SDS011;41215;45.076;20.956;2022-07-29T08:04:12;12.52;;;6.30;;
55342;SDS011;41215;45.076;20.956;2022-07-29T08:06:38;14.38;;;6.60;;
55342;SDS011;41215;45.076;20.956;2022-07-29T08:09:04;9.20;;;6.00;;
55342;SDS011;41215;45.076;20.956;2022-07-29T08:11:31;5.90;;;5.40;;
55342;SDS011;41215;45.076;20.956;2022-07-29T08:14:04;8.45;;;6.32;;
55342;SDS011;41215;45.076;20.956;2022-07-29T08:16:33;11.43;;;6.10;;
55342;SDS011;41215;45.076;20.956;2022-07-29T08:18:59;10.45;;;5.85;;
55342;SDS011;41215;45.076;20.956;2022-07-29T08:21:25;8.75;;;5.88;;
55342;SDS011;41215;45.076;20.956;2022-07-29T08:23:51;14.32;;;6.18;;
55342;SDS011;41215;45.076;20.956;2022-07-29T08:26:42;8.02;;;6.25;;
55342;SDS011;41215;45.076;20.956;2022-07-29T08:29:09;8.00;;;6.00;;
